KBDE/BDE METAR and TAF weather

Enter ICAO airport designator
Station Type Date Time Source
KBDE METAR 2021/01/22 04:53 UTC NOAA

KBDE 220453Z AUTO 29006KT 10SM CLR M22/M24 A3008 RMK AO2 SLP220 T12221239 $


Station Type Date Time Source
KBDE Decoded METAR 2021/01/22 04:53 UTC NOAA

BAUDETTE INTERNATIONAL AIRPORT, MN, United States (KBDE) 48-44N 94-37W 329M
Jan 21, 2021 - 11:53 PM EST / 2021.01.22 0453 UTC
Wind: from the WNW (290 degrees) at 7 MPH (6 KT):0
Visibility: 10 mile(s):0
Sky conditions: clear
Temperature: -8.0 F (-22.2 C)
Windchill: -22 F (-30 C):2
Dew Point: -11.0 F (-23.9 C)
Relative Humidity: 86%
Pressure (altimeter): 30.08 in. Hg (1018 hPa)
ob: KBDE 220453Z AUTO 29006KT 10SM CLR M22/M24 A3008 RMK AO2 SLP220 T12221239
cycle: 5

Station Type Date Time Source
KBDE TAF UTC NOAA

Error!

Example: see airport list